Weather observations for the past three days for
Farmville
Imperial (Metric)
Date Time (edt) Wind (mph) Vis. (mi.) Weather Sky Cond. Temperature (ºF) Relative Humidity Wind Chill (°F) Heat Index (°F) Pressure Precipitation (in)
Air Dwpt 6 hour altimeter (in) sea level (mb) 1 hr 3 hr 6 hr
Max. Min.
04 20:35 Calm 10.00 Fair CLR 69.6 50 50% 29.88 0.0
04 20:15 Calm 10.00 Fair CLR 70.3 51.6 52% 29.88 0.0
04 19:55 Calm 10.00 Fair CLR 72.3 51.3 79.9 72.3 48% 29.88 0.0
04 19:35 Calm 10.00 Partly Cloudy SCT120 72.7 51.1 47% 29.87 0.0
04 19:15 SW 3 10.00 Fair CLR 74.5 50 42% 29.87 0.0
04 18:55 SW 8 10.00 Fair CLR 75.4 50 41% 78 29.88 0.0
04 18:35 SW 7 10.00 Fair CLR 77.5 50.2 38% 78 29.87 0.0
04 18:15 S 9 10.00 Fair CLR 78.1 50.7 38% 79 29.88 0.0
04 17:55 S 10 10.00 Fair CLR 78.3 49.8 37% 79 29.88 0.0
04 17:35 SW 7 10.00 Fair CLR 77 48.7 37% 78 29.88 0.0
04 17:15 SW 9 10.00 Fair CLR 77.9 48.7 36% 78 29.87 0.0
04 16:55 SW 8 G 16 10.00 Fair CLR 77.4 47.5 35% 78 29.87 0.0
04 16:35 SW 7 G 21 10.00 Partly Cloudy SCT120 77.9 47.5 34% 78 29.87 0.0
04 16:15 SW 10 G 18 10.00 Mostly Cloudy BKN120 79.5 47.5 32% 79 29.88 0.0
04 15:55 S 16 G 22 10.00 Partly Cloudy SCT080 SCT120 79.3 46.9 32% 79 29.87 0.0
04 15:35 S 17 10.00 Partly Cloudy SCT080 78.1 46.8 33% 78 29.88 0.0
04 15:15 S 10 G 18 10.00 Fair CLR 78.8 45.5 31% 79 29.89 0.0
04 14:55 S 16 G 20 10.00 Fair CLR 78.4 46.4 32% 78 29.89 0.0
04 14:35 SW 8 10.00 Fair CLR 77.4 45.5 32% 78 29.91 0.0
04 14:15 S 10 10.00 Fair CLR 77 45.9 33% 78 29.92 0.0
04 13:55 S 8 10.00 Fair CLR 77 47.3 77 52.5 35% 78 29.93 0.0
04 13:35 SW 7 10.00 Fair CLR 74.8 44.4 34% 29.93 0.0
04 13:15 SW 6 10.00 Fair CLR 74.3 44.1 34% 29.94 0.0
04 12:55 SW 5 10.00 Fair CLR 74.3 44.6 35% 29.95 0.0
04 12:35 SW 7 10.00 Fair CLR 72.7 44.8 37% 29.96 0.0
04 12:15 SW 8 10.00 Fair CLR 70.7 44.6 39% 29.97 0.0
04 11:55 SW 7 10.00 Fair CLR 71.4 44.1 37% 29.98 0.0
04 11:35 S 8 10.00 Fair CLR 69.6 44.1 40% 29.98 0.0
04 11:15 SW 8 10.00 Fair CLR 70.5 44.1 39% 29.98 0.0
04 10:55 S 7 10.00 Fair CLR 68.2 43.7 41% 29.98 0.0
04 10:35 SW 6 10.00 Fair CLR 69.1 44.4 41% 29.98 0.0
04 10:15 S 8 10.00 Fair CLR 66.7 43 42% 29.98 0.0
04 09:55 SW 5 10.00 Fair CLR 64.6 43.2 46% 29.99 0.0
04 09:35 S 3 10.00 Fair CLR 61.9 43.5 51% 30 0.0
04 09:15 S 3 10.00 Fair CLR 59.9 43.7 55% 30 0.0
04 08:55 S 5 10.00 Fair CLR 57.6 42.3 57% 30 0.0
04 08:35 SW 5 10.00 Fair CLR 55.6 42.1 61% 30 0.0
04 08:15 S 5 10.00 Fair CLR 54 41.7 63% 30 0.0
04 07:55 S 5 10.00 Fair CLR 52.3 41.7 52.3 45 67% 30.01 0.0
04 07:35 Calm 10.00 Partly Cloudy SCT110 50.4 43.2 76% 30.01 0.0
04 07:15 Calm 10.00 Mostly Cloudy BKN110 49.1 41.7 76% 30.01 0.0
04 06:55 Calm 10.00 Mostly Cloudy BKN110 47.3 40.8 78% 30 0.0
04 06:35 SW 3 10.00 Partly Cloudy SCT110 45.7 39.7 80% 30 0.0
04 06:15 SW 5 10.00 Partly Cloudy SCT085 SCT120 46.4 39.4 77% 45 30 0.0
04 05:55 Calm 10.00 Mostly Cloudy SCT085 BKN120 46.4 39.6 77% 30 0.0
04 05:35 Calm 10.00 Mostly Cloudy BKN120 47.8 39.7 74% 30 0.0
04 05:15 Calm 10.00 Mostly Cloudy SCT080 BKN100 48.7 40.5 73% 29.99 0.0
04 04:55 Calm 10.00 Overcast BKN080 BKN100 OVC120 48.7 40.8 74% 29.99 0.0
04 04:35 Calm 10.00 Overcast OVC080 49.3 40.1 71% 30.01 0.0
04 04:15 SW 3 10.00 Overcast SCT080 OVC100 47.7 43 84% 30 0.0
04 03:55 Calm 10.00 Overcast OVC090 47.7 43.2 84% 30.01 0.0
04 03:35 Calm 10.00 Overcast OVC090 48 40.8 76% 30.01 0.0
04 03:15 Calm 10.00 Overcast OVC100 47.3 41 79% 30.01 0.0
04 02:55 Calm 10.00 Overcast OVC100 46 43 89% 30.01 0.0
04 02:35 Calm 10.00 Overcast OVC110 46.2 41.9 85% 30.01 0.0
04 02:15 Calm 10.00 Overcast OVC120 47.7 40.5 76% 30.01 0.0
04 01:55 Calm 10.00 Overcast OVC120 47.8 39.2 57.4 43.7 72% 30 0.0
04 01:35 Calm 10.00 Overcast OVC120 47.7 38.3 70% 30 0.0
04 01:15 Calm 10.00 Mostly Cloudy BKN110 47.1 38.3 72% 30.01 0.0
04 00:55 Calm 10.00 Partly Cloudy SCT110 46.8 37.8 71% 30 0.0
04 00:35 Calm 10.00 Fair CLR 46.2 38.3 74% 30.01 0.0
04 00:15 Calm 10.00 Partly Cloudy SCT110 45.9 38.1 74% 30 0.0
03 23:55 Calm 10.00 Partly Cloudy SCT120 46.4 37.6 71% 30.01 0.0
03 23:35 Calm 10.00 Fair CLR 44.4 37.9 78% 30 0.0
03 23:15 Calm 10.00 Fair CLR 45 38.3 78% 30 0.0
03 22:55 Calm 10.00 Fair CLR 46.4 37.8 72% 30.01 0.0
03 22:35 Calm 10.00 Fair CLR 50.5 37.4 61% 30 0.0
03 22:15 Calm 10.00 Fair CLR 48 37.8 68% 30 0.0
03 21:55 Calm 10.00 Fair CLR 51.6 37.4 58% 29.99 0.0
03 21:35 Calm 10.00 Fair CLR 51.1 37.6 60% 29.98 0.0
03 21:15 Calm 10.00 Fair CLR 52.7 36.3 54% 29.98 0.0
03 20:55 Calm 10.00 Fair CLR 53.8 37.4 54% 29.98 0.0
03 20:35 Calm 10.00 Fair CLR 54.9 36.9 51% 29.98 0.0
03 20:15 Calm 10.00 Fair CLR 56.3 35.6 46% 29.98 0.0
03 19:55 Calm 10.00 Fair CLR 57.4 36.5 66 57.4 46% 29.97 0.0
03 19:35 Calm 10.00 Fair CLR 58.6 36 43% 29.97 0.0
03 19:15 SW 3 10.00 Fair CLR 61 35.2 38% 29.97 0.0
03 18:55 SW 3 10.00 Fair CLR 63.5 32.2 31% 29.97 0.0
03 18:35 SW 3 10.00 Fair CLR 65.1 32.4 29% 29.97 0.0
03 18:15 S 5 10.00 Fair CLR 65.3 32.2 29% 29.97 0.0
03 17:55 SW 5 10.00 Fair CLR 65.8 32.9 29% 29.98 0.0
03 17:35 W 3 10.00 Fair CLR 65.5 31.1 28% 29.98 0.0
03 17:15 SW 6 10.00 Fair CLR 65.5 32.2 29% 29.98 0.0
03 16:55 NW 3 10.00 Fair CLR 65.1 31.1 28% 29.98 0.0
03 16:35 SW 5 10.00 Fair CLR 64.6 31.3 29% 29.99 0.0
03 16:15 Calm 10.00 Fair CLR 64.9 31.5 29% 29.99 0.0
03 15:55 SW 3 G 16 10.00 Fair CLR 64.4 32 30% 30 0.0
03 15:35 W 6 10.00 Fair CLR 64 31.8 30% 30.01 0.0
03 14:55 NW 3 10.00 Fair CLR 62.8 31.5 31% 30.03 0.0
03 14:35 SW 6 10.00 Fair CLR 63.1 33.1 33% 30.03 0.0
03 14:15 W 5 10.00 Fair CLR 61.5 31.6 33% 30.04 0.0
03 13:55 S 7 10.00 Fair CLR 61.5 32.5 61.5 47.1 34% 30.04 0.0
03 13:35 N 6 10.00 Fair CLR 61 32.4 34% 30.05 0.0
03 13:15 W 5 10.00 Fair CLR 61.3 32.4 34% 30.05 0.0
03 12:55 SW 7 10.00 Fair CLR 59.2 31.5 35% 30.06 0.0
03 12:35 N 5 10.00 Fair CLR 58.8 31.8 36% 30.07 0.0
03 12:15 W 6 10.00 Fair CLR 58.1 31.5 37% 30.08 0.0
03 11:55 NW 6 10.00 Fair CLR 57.7 31.1 36% 30.08 0.0
03 11:35 SW 8 10.00 Fair CLR 57.4 31.5 37% 30.09 0.0
03 11:15 N 7 10.00 Fair CLR 55.6 30.7 39% 30.09 0.0
03 10:55 NE 5 10.00 Fair CLR 55.2 30.7 39% 30.09 0.0
03 10:35 NW 5 10.00 Fair CLR 55.6 32.4 41% 30.09 0.0
03 10:15 N 6 10.00 Fair CLR 53.2 32.7 46% 30.09 0.0
03 09:55 N 7 10.00 Fair CLR 53.4 32.4 45% 30.09 0.0
03 09:35 N 9 10.00 Fair CLR 53.4 33.4 47% 30.09 0.0
03 09:15 NW 6 10.00 Fair CLR 53.1 32.7 46% 30.08 0.0
03 08:55 N 3 10.00 Fair CLR 51.8 33.3 49% 30.08 0.0
03 08:35 N 5 10.00 Fair CLR 50.2 34.2 54% 30.07 0.0
03 08:15 Calm 10.00 Fair CLR 49.3 35.1 58% 30.07 0.0
03 07:55 Calm 10.00 Fair CLR 46.8 36.1 50 36.9 67% 30.06 0.0
03 07:35 Calm 10.00 Fair CLR 41.9 38.7 88% 30.06 0.0
03 07:15 Calm 10.00 Fair CLR 39.4 36.7 90% 30.06 0.0
03 06:55 Calm 10.00 Fair CLR 37.4 35.8 94% 30.04 0.0
03 06:35 Calm 10.00 Fair CLR 37.6 35.6 93% 30.03 0.0
03 06:15 Calm 10.00 Fair CLR 38.8 35.6 88% 30.01 0.0
03 05:55 Calm 10.00 Fair CLR 38.1 35.6 91% 30.01 0.0
03 05:35 Calm 10.00 Fair CLR 40.5 36.7 86% 30 0.0
03 05:15 Calm 10.00 Fair CLR 41.4 36.3 82% 29.99 0.0
03 04:55 Calm 10.00 Fair CLR 45.7 36.1 69% 29.99 0.0
03 04:35 Calm 10.00 Fair CLR 42.6 37.2 81% 29.98 0.0
03 04:15 Calm 10.00 Partly Cloudy SCT090 45.1 38.3 77% 29.98 0.0
03 03:55 Calm 10.00 Mostly Cloudy BKN090 45.7 39.9 80% 29.98 0.0
03 03:35 Calm 10.00 Overcast OVC090 47.3 39.4 74% 29.97 0.0
03 03:15 Calm 10.00 Overcast OVC090 48.7 39 69% 29.96 0.0
03 02:55 Calm 10.00 Overcast OVC090 48.9 41 74% 29.96 0.0
03 02:35 Calm 10.00 Overcast OVC090 49.6 40.8 72% 29.95 0.0
03 02:15 N 3 10.00 Overcast OVC090 49.1 42.6 78% 29.95 0.0
03 01:55 NE 5 10.00 Overcast OVC090 49.8 44.4 56.8 49.6 82% 49 29.95 0.0
03 01:35 Calm 10.00 Overcast OVC090 50.2 45.3 83% 29.94 0.0
03 01:15 Calm 10.00 Overcast OVC090 51.3 44.6 78% 29.94 0.0
03 00:55 Calm 10.00 Overcast BKN080 OVC090 51.6 45.1 79% 29.94 0.0
03 00:35 Calm 10.00 Overcast OVC070 50.9 47.1 87% 29.93 0.0
03 00:15 Calm 10.00 Overcast OVC070 51.4 46.6 84% 29.93 0.0
02 23:55 Calm 10.00 Overcast OVC070 50.9 47.1 87% 29.93 0.0
02 23:35 Calm 10.00 Light Rain SCT050 OVC070 52.2 48.2 86% 29.93 0.0
02 23:15 Calm 10.00 Rain OVC060 53.4 45.5 75% 29.93 0.0
02 22:55 Calm 10.00 Overcast BKN060 OVC070 53.2 45.3 75% 29.93 0.0
02 22:35 N 3 10.00 Overcast BKN060 OVC070 53.2 45.7 76% 29.92 0.0
02 22:15 N 3 10.00 Overcast BKN070 OVC110 52.9 45 75% 29.92 0.0
02 21:55 Calm 10.00 Overcast OVC110 52.2 44.2 75% 29.92 0.0
02 21:35 Calm 10.00 Overcast SCT070 OVC110 52.5 44.8 75% 29.92 0.0
02 21:15 Calm 10.00 Overcast SCT060 SCT080 OVC110 52.3 45 76% 29.91 0.0
02 20:55 W 3 10.00 Overcast SCT070 OVC080 54.7 44.6 69% 29.91 0.0
02 20:35 W 3 10.00 Overcast OVC070 55.4 43.7 65% 29.91 0.0
02 20:15 Calm 10.00 Overcast OVC070 55.8 45.3 68% 29.89 0.0
02 19:55 Calm 10.00 Mostly Cloudy BKN080 BKN095 57 42.6 64.2 57 59% 29.88 0.0
02 19:35 Calm 10.00 Partly Cloudy SCT090 57.4 42.1 57% 29.87 0.0
02 19:15 SE 5 10.00 Partly Cloudy SCT090 58.6 41.2 52% 29.86 0.0
02 18:55 SE 5 10.00 Fair CLR 59.5 41.2 51% 29.86 0.0
02 18:35 SE 3 10.00 Partly Cloudy SCT080 61.3 41.2 48% 29.86 0.0
02 18:15 SE 3 10.00 Partly Cloudy SCT080 61.7 40.1 45% 29.86 0.0
02 17:55 S 6 10.00 Fair CLR 62.2 40.5 45% 29.85 0.0
02 17:35 Calm 10.00 Partly Cloudy SCT075 62.1 40.3 45% 29.85 0.0
02 17:15 SE 3 10.00 Partly Cloudy SCT065 SCT075 62.8 40.3 44% 29.86 0.0
02 16:55 E 3 10.00 Mostly Cloudy BKN065 63.7 40.1 42% 29.86 0.0
02 16:35 Calm 10.00 Partly Cloudy SCT060 64 39.9 41% 29.86 0.0
02 16:15 SE 6 10.00 Fair CLR 61.9 39.6 44% 29.86 0.0
02 15:55 NE 5 10.00 Fair CLR 63 40.1 43% 29.87 0.0
02 15:35 NE 6 10.00 Fair CLR 61.9 39.2 43% 29.87 0.0
02 15:15 Calm 10.00 Partly Cloudy SCT080 62.2 38.1 41% 29.88 0.0
02 14:55 NE 6 10.00 Partly Cloudy SCT080 62.1 39.4 43% 29.89 0.0
02 14:35 N 3 10.00 Partly Cloudy SCT080 60.6 38.7 44% 29.9 0.0
02 14:15 NE 7 10.00 Mostly Cloudy SCT050 BKN080 62.1 39.2 43% 29.9 0.0
02 13:55 N 7 10.00 Overcast BKN050 OVC090 60.1 39.6 63 53.4 47% 29.91 0.0
02 13:35 E 7 10.00 Mostly Cloudy SCT048 BKN080 BKN095 61 39.7 46% 29.91 0.0
02 13:15 NE 12 10.00 Mostly Cloudy SCT044 BKN080 BKN095 60.8 40.8 48% 29.93 0.0
02 12:55 NE 9 10.00 Overcast SCT042 OVC080 60.3 41.4 50% 29.93 0.0
02 12:35 NE 8 10.00 Overcast OVC080 58.8 43.5 57% 29.95 0.0
02 12:15 E 8 10.00 Overcast OVC080 57.9 43.3 59% 29.96 0.0
02 11:55 NE 7 10.00 Overcast SCT034 BKN085 OVC090 56.5 43.5 62% 29.94 0.0
02 11:35 NE 9 10.00 Mostly Cloudy SCT036 SCT041 BKN085 58.3 44.2 60% 29.95 0.0
02 11:15 NE 8 10.00 Mostly Cloudy SCT029 SCT038 BKN085 58.3 45.9 64% 29.95 0.0
02 10:55 NE 9 10.00 Partly Cloudy SCT080 57.6 45.7 65% 29.94 0.0
02 10:35 N 8 10.00 Partly Cloudy SCT080 57.2 39.7 52% 29.94 0.0
02 10:15 N 6 10.00 Fair CLR 57.4 41.4 55% 29.95 0.0
02 09:55 N 6 10.00 Fair CLR 57.4 40.3 53% 29.94 0.0
02 09:35 NE 6 10.00 Partly Cloudy SCT070 57.9 47.5 68% 29.94 0.0
02 09:15 NE 6 10.00 Partly Cloudy SCT070 SCT090 56.5 48.9 76% 29.94 0.0
02 08:55 NE 6 10.00 Overcast BKN070 OVC090 55.4 48.6 78% 29.93 0.0
02 08:35 Calm 10.00 Partly Cloudy SCT090 54.5 48.7 81% 29.93 0.0
02 08:15 Calm 10.00 Mostly Cloudy BKN090 54.5 49.3 83% 29.92 0.0
02 07:55 Calm 10.00 Mostly Cloudy BKN090 53.6 48.4 53.6 49.3 83% 29.92 0.0
02 07:35 Calm 10.00 Fair CLR 50.9 49.1 94% 29.91 0.0
02 07:15 Calm 10.00 Fair CLR 50.5 48.2 92% 29.91 0.0
02 06:55 Calm 10.00 Fair CLR 49.3 47.3 93% 29.91 0.0
02 06:35 Calm 10.00 Fair CLR 50.7 47.1 88% 29.92 0.0
02 06:15 Calm 10.00 Fair CLR 52 46.9 83% 29.92 0.0
02 05:55 N 3 10.00 Fair CLR 52.2 46.9 83% 29.91 0.0
02 05:35 Calm 10.00 Fair CLR 51.8 47.1 84% 29.91 0.0
02 05:15 N 3 10.00 Fair CLR 52.2 47.1 83% 29.91 0.0
02 04:55 N 3 10.00 Fair CLR 52 47.3 84% 29.9 0.0
02 04:35 Calm 10.00 Fair CLR 52.2 48 86% 29.89 0.0
02 04:15 Calm 10.00 Fair CLR 53.2 48.2 83% 29.88 0.0
02 03:55 Calm 10.00 Fair CLR 51.1 48.4 91% 29.88 0.0
02 03:35 Calm 10.00 Fair CLR 51.8 48.7 89% 29.88 0.0
02 03:15 Calm 10.00 Fair CLR 51.8 48.7 89% 29.88 0.0
02 02:55 Calm 10.00 Fair CLR 52 48.9 89% 29.88 0.0
02 02:35 Calm 10.00 Fair CLR 51.3 48.7 91% 29.89 0.0
02 02:15 Calm 10.00 Fair CLR 51.4 48.7 91% 29.88 0.0
02 01:55 Calm 10.00 Fair CLR 52.7 49.1 61.2 52.3 88% 29.88 0.0
02 01:35 Calm 10.00 Fair CLR 52.9 49.1 87% 29.89 0.0
02 01:15 SW 5 10.00 Fair CLR 53.8 49.1 84% 29.89 0.0
02 00:55 SW 3 10.00 Fair CLR 54.3 49.1 83% 29.89 0.0
02 00:35 S 5 10.00 Fair CLR 54.9 49.1 81% 29.89 0.0
02 00:15 SW 5 10.00 Fair CLR 55.9 49.1 78% 29.89 0.0
01 23:55 S 7 10.00 Fair CLR 56.1 48.9 77% 29.89 0.0
01 23:35 S 8 10.00 Fair CLR 56.3 48.9 76% 29.89 0.0
01 23:15 S 6 10.00 Fair CLR 57.2 48.6 73% 29.89 0.0
01 22:55 S 8 10.00 Fair CLR 57.9 48.7 72% 29.89 0.0
01 22:35 S 8 10.00 Mostly Cloudy BKN110 57.7 49.1 73% 29.88 0.0
01 22:15 S 9 10.00 Overcast OVC110 58.1 49.1 72% 29.88 0.0
01 21:55 S 8 10.00 Overcast OVC110 58.8 48.4 68% 29.88 0.0
01 21:35 S 8 10.00 Overcast OVC110 59.9 47.7 64% 29.88 0.0
01 21:15 Calm 10.00 Mostly Cloudy BKN110 59.2 45.5 61% 29.87 0.0
01 20:55 Calm 10.00 Fair CLR 59.2 45.7 61% 29.86 0.0
Date Time (edt) Wind (mph) Vis. (mi.) Weather Sky Cond. Air Dwpt Max. Min. Relative Humidity Wind Chill (°F) Heat Index (°F) altimeter (in) sea level (mb) 1 hr 3 hr 6 hr
6 hour
Temperature (ºF) Pressure Precipitation (in)